createdAt,value
2023-02-13T00:00:35.748Z,101108.05
2023-02-13T00:01:39.554Z,101100.27
2023-02-13T00:02:41.646Z,101102.61
2023-02-13T00:03:45.955Z,101090.27
2023-02-13T00:04:48.273Z,101098.88
2023-02-13T00:05:50.444Z,101093.77
2023-02-13T00:06:52.645Z,101096.33
2023-02-13T00:07:55.632Z,101093.05
2023-02-13T00:08:57.671Z,101101.75
2023-02-13T00:10:00.166Z,101100.72
2023-02-13T00:11:02.356Z,101095.36
2023-02-13T00:12:05.773Z,101091.81
2023-02-13T00:13:08.792Z,101090.11
2023-02-13T00:14:11.180Z,101087.77
2023-02-13T00:15:13.465Z,101085.98
2023-02-13T00:16:17.155Z,101085.98
2023-02-13T00:17:20.888Z,101081.63
2023-02-13T00:18:22.922Z,101088.15
2023-02-13T00:19:25.248Z,101077.85
2023-02-13T00:20:27.562Z,101081.70
2023-02-13T00:21:29.671Z,101072.91
2023-02-13T00:22:37.403Z,101073.14
2023-02-13T00:23:40.054Z,101078.16
2023-02-13T00:24:42.978Z,101071.33
2023-02-13T00:25:45.162Z,101080.74
2023-02-13T00:26:47.339Z,101075.80
2023-02-13T00:27:53.396Z,101075.06
2023-02-13T00:28:56.948Z,101070.89
2023-02-13T00:30:00.034Z,101090.16
2023-02-13T00:32:15.330Z,101078.57
2023-02-13T00:33:17.554Z,101073.14
2023-02-13T00:34:20.877Z,101075.61
2023-02-13T00:35:22.863Z,101078.34
2023-02-13T00:36:25.558Z,101072.41
2023-02-13T00:37:28.761Z,101069.70
2023-02-13T00:38:31.298Z,101072.88
2023-02-13T00:39:33.556Z,101057.41
2023-02-13T00:40:36.393Z,101057.41
2023-02-13T00:41:39.309Z,101073.69
2023-02-13T00:42:41.848Z,101071.91
2023-02-13T00:43:45.656Z,101076.12
2023-02-13T00:44:48.861Z,101069.87
2023-02-13T00:45:51.136Z,101071.56
2023-02-13T00:46:54.190Z,101064.73
2023-02-13T00:47:56.196Z,101061.46
2023-02-13T00:48:58.323Z,101049.58
2023-02-13T00:50:01.793Z,101051.07
2023-02-13T00:51:06.414Z,101053.73
2023-02-13T00:52:08.616Z,101054.51
2023-02-13T00:53:11.017Z,101053.80
2023-02-13T00:54:13.969Z,101057.42
2023-02-13T00:55:16.420Z,101045.43
2023-02-13T00:56:19.531Z,101055.58
2023-02-13T00:57:21.779Z,101044.43
2023-02-13T00:58:24.219Z,101047.60
2023-02-13T00:59:27.533Z,101045.76
2023-02-13T01:00:30.214Z,101051.19
2023-02-13T01:01:32.676Z,101037.31
2023-02-13T01:02:36.677Z,101042.59
2023-02-13T01:03:39.240Z,101045.68
2023-02-13T01:04:41.817Z,101038.66
2023-02-13T01:05:46.022Z,101030.98
2023-02-13T01:06:48.366Z,101040.59
2023-02-13T01:07:51.306Z,101036.42
2023-02-13T01:08:53.385Z,101038.27
2023-02-13T01:09:55.460Z,101032.41
2023-02-13T01:10:58.202Z,101030.70
2023-02-13T01:12:01.001Z,101044.50
2023-02-13T01:13:03.401Z,101034.14
2023-02-13T01:14:06.631Z,101040.30
2023-02-13T01:15:09.760Z,101041.07
2023-02-13T01:16:14.580Z,101033.36
2023-02-13T01:17:16.730Z,101022.03
2023-02-13T01:18:20.852Z,101025.02
2023-02-13T01:19:23.779Z,101031.73
2023-02-13T01:20:28.811Z,101032.63
2023-02-13T01:21:30.885Z,101032.52
2023-02-13T01:22:33.122Z,101039.23
2023-02-13T01:23:38.543Z,101021.95
2023-02-13T01:24:40.829Z,101026.94
2023-02-13T01:25:43.095Z,101022.84
2023-02-13T01:26:45.793Z,101021.77
2023-02-13T01:27:48.140Z,101025.94
2023-02-13T01:28:54.047Z,101021.84
2023-02-13T01:29:56.317Z,101022.66
2023-02-13T01:30:59.664Z,101022.66
2023-02-13T01:32:04.283Z,101013.20
2023-02-13T01:33:06.613Z,101021.77
2023-02-13T01:34:08.949Z,101015.02
2023-02-13T01:35:12.788Z,101011.84
2023-02-13T01:36:15.607Z,101014.83
2023-02-13T01:37:19.093Z,101009.48
2023-02-13T01:38:21.531Z,101020.59
2023-02-13T01:39:23.659Z,101017.13
2023-02-13T01:40:27.896Z,101017.05
2023-02-13T01:41:30.588Z,101027.31
2023-02-13T01:42:34.926Z,101017.64
2023-02-13T01:43:58.814Z,101006.68
2023-02-13T01:45:04.490Z,101016.27
2023-02-13T01:46:07.011Z,101016.05
2023-02-13T01:47:13.814Z,101008.23
2023-02-13T01:48:19.409Z,101008.48
2023-02-13T01:49:25.137Z,101017.02
2023-02-13T01:50:37.185Z,101011.66
2023-02-13T01:51:41.188Z,101013.50
2023-02-13T01:52:47.002Z,101010.81
2023-02-13T01:53:56.048Z,101007.16
2023-02-13T01:55:01.387Z,101018.96
2023-02-13T01:56:13.386Z,101005.89
2023-02-13T01:57:23.122Z,101008.62
2023-02-13T01:58:29.452Z,101001.92
2023-02-13T01:59:38.166Z,100995.91
2023-02-13T02:00:42.652Z,101001.06
2023-02-13T02:01:46.146Z,101000.30
2023-02-13T02:02:52.584Z,101004.38
2023-02-13T02:04:00.305Z,101002.11
2023-02-13T02:05:07.206Z,100991.03
2023-02-13T02:06:13.905Z,100992.70
2023-02-13T02:07:23.434Z,100996.05
2023-02-13T02:08:27.045Z,100992.11
2023-02-13T02:09:33.003Z,101000.59
2023-02-13T02:10:35.953Z,100989.37
2023-02-13T02:11:43.282Z,100991.03
2023-02-13T02:13:14.954Z,100998.12
2023-02-13T02:14:17.930Z,100990.03
2023-02-13T02:15:20.800Z,100985.53
2023-02-13T02:16:26.034Z,100995.50
2023-02-13T02:17:28.369Z,100989.56
2023-02-13T02:18:31.133Z,100993.21
2023-02-13T02:19:39.707Z,100979.56
2023-02-13T02:21:10.926Z,100978.12
2023-02-13T02:22:19.968Z,100986.00
2023-02-13T02:23:45.607Z,100988.30
2023-02-13T02:25:08.542Z,100994.77
2023-02-13T02:26:22.578Z,100987.30
2023-02-13T02:27:28.497Z,100990.52
2023-02-13T02:28:39.096Z,100991.48
2023-02-13T02:29:58.057Z,100991.59
2023-02-13T02:31:11.835Z,101001.48
2023-02-13T02:32:26.849Z,100984.58
2023-02-13T02:33:49.231Z,100995.05
2023-02-13T02:34:58.272Z,100992.95
2023-02-13T02:36:18.898Z,100987.90
2023-02-13T02:37:36.414Z,100983.21
2023-02-13T02:38:51.206Z,100984.16
2023-02-13T02:40:25.888Z,100993.36
2023-02-13T02:41:42.387Z,100978.58
2023-02-13T02:43:09.965Z,100977.73
2023-02-13T02:44:34.110Z,100982.93
2023-02-13T02:46:03.616Z,100982.11
2023-02-13T02:47:33.560Z,100978.47
2023-02-13T02:48:58.119Z,100981.87
2023-02-13T02:50:29.458Z,100970.19
2023-02-13T02:51:45.471Z,100967.89
2023-02-13T02:53:24.844Z,100980.38
2023-02-13T02:55:04.728Z,100979.56
2023-02-13T02:56:30.677Z,100972.03
2023-02-13T02:57:58.097Z,100975.39
2023-02-13T02:59:22.099Z,100975.04
2023-02-13T03:00:46.204Z,100978.30
2023-02-13T03:02:11.478Z,100972.63
2023-02-13T03:03:35.808Z,100961.70
2023-02-13T03:05:03.453Z,100973.77
2023-02-13T03:06:13.651Z,100964.56
2023-02-13T03:07:19.104Z,100963.58
2023-02-13T03:08:23.751Z,100964.45
2023-02-13T03:09:51.265Z,100969.63
2023-02-13T03:11:12.399Z,100961.84
2023-02-13T03:12:39.142Z,100966.83
2023-02-13T03:13:45.092Z,100965.10
2023-02-13T03:14:47.457Z,100972.03
2023-02-13T03:16:11.186Z,100965.34
2023-02-13T03:17:35.339Z,100965.55
2023-02-13T03:18:59.414Z,100961.60
2023-02-13T03:20:23.508Z,100966.77
2023-02-13T03:22:04.887Z,100964.25
2023-02-13T03:23:16.944Z,100964.25
2023-02-13T03:24:48.376Z,100959.16
2023-02-13T03:26:12.620Z,100954.91
2023-02-13T03:27:23.210Z,100957.35
2023-02-13T03:28:56.906Z,100968.33
2023-02-13T03:30:10.717Z,100958.00
2023-02-13T03:31:25.607Z,100953.62
2023-02-13T03:32:43.389Z,100954.64
2023-02-13T03:34:01.787Z,100956.81
2023-02-13T03:35:44.172Z,100950.73
2023-02-13T03:37:11.659Z,100956.58
2023-02-13T03:38:23.640Z,100950.56
2023-02-13T03:39:52.493Z,100953.61
2023-02-13T03:41:17.139Z,100933.95
2023-02-13T03:42:41.446Z,100936.48
2023-02-13T03:43:53.136Z,100936.48
2023-02-13T03:45:17.551Z,100931.40
2023-02-13T03:46:22.718Z,100933.73
2023-02-13T03:47:25.029Z,100932.03
2023-02-13T03:48:49.251Z,100933.73
2023-02-13T03:50:05.027Z,100937.88
2023-02-13T03:51:10.029Z,100929.42
2023-02-13T03:52:31.026Z,100920.80
2023-02-13T03:53:36.852Z,100928.43
2023-02-13T03:55:14.870Z,100931.93
2023-02-13T03:56:39.806Z,100930.97
2023-02-13T03:58:03.524Z,100926.55
2023-02-13T03:59:17.967Z,100922.24
2023-02-13T04:00:21.841Z,100924.86
2023-02-13T04:01:27.695Z,100920.51
2023-02-13T04:02:33.689Z,100922.84
2023-02-13T04:03:57.533Z,100924.42
2023-02-13T04:05:18.416Z,100912.51
2023-02-13T04:06:25.001Z,100914.28
2023-02-13T04:07:31.883Z,100909.11
2023-02-13T04:08:34.631Z,100909.97
2023-02-13T04:09:40.327Z,100917.56
2023-02-13T04:10:46.756Z,100912.44
2023-02-13T04:12:09.826Z,100908.20
2023-02-13T04:13:28.459Z,100908.20
2023-02-13T04:14:40.431Z,100905.76
2023-02-13T04:15:55.136Z,100919.38
2023-02-13T04:17:01.158Z,100906.46
2023-02-13T04:18:25.516Z,100908.23
2023-02-13T04:19:28.173Z,100911.84
2023-02-13T04:20:32.407Z,100900.92
2023-02-13T04:21:36.473Z,100897.53
2023-02-13T04:22:44.186Z,100892.51
2023-02-13T04:23:46.125Z,100898.52
2023-02-13T04:24:48.558Z,100900.25
2023-02-13T04:25:53.762Z,100895.20
2023-02-13T04:26:57.470Z,100901.24
2023-02-13T04:27:59.647Z,100898.84
2023-02-13T04:29:01.850Z,100899.79
2023-02-13T04:30:05.688Z,100901.55
2023-02-13T04:31:07.983Z,100902.61
2023-02-13T04:32:11.443Z,100889.09
2023-02-13T04:33:13.583Z,100891.72
2023-02-13T04:34:16.319Z,100898.54
2023-02-13T04:35:18.542Z,100895.18
2023-02-13T04:36:21.672Z,100895.18
2023-02-13T04:37:26.024Z,100891.81
2023-02-13T04:38:28.498Z,100895.92
2023-02-13T04:39:30.590Z,100891.64
2023-02-13T04:40:33.976Z,100894.19
2023-02-13T04:41:36.466Z,100883.19
2023-02-13T04:42:38.649Z,100873.95
2023-02-13T04:43:40.975Z,100878.16
2023-02-13T04:44:43.209Z,100878.09
2023-02-13T04:45:50.396Z,100878.00
2023-02-13T04:46:52.793Z,100888.28
2023-02-13T04:47:56.879Z,100888.31
2023-02-13T04:48:58.907Z,100886.72
2023-02-13T04:50:01.030Z,100883.36
2023-02-13T04:51:03.512Z,100884.99
2023-02-13T04:52:06.887Z,100891.00
2023-02-13T04:53:09.196Z,100884.34
2023-02-13T04:54:11.473Z,100887.02
2023-02-13T04:55:13.964Z,100890.48
2023-02-13T04:56:18.523Z,100885.33
2023-02-13T04:57:22.311Z,100888.89
2023-02-13T04:58:24.851Z,100899.14
2023-02-13T04:59:27.588Z,100896.69
2023-02-13T05:00:32.262Z,100890.03
2023-02-13T05:01:34.611Z,100895.16
2023-02-13T05:02:38.714Z,100890.84
2023-02-13T05:03:41.494Z,100887.48
2023-02-13T05:04:43.641Z,100886.73
2023-02-13T05:05:45.842Z,100886.73
2023-02-13T05:06:48.051Z,100894.37
2023-02-13T05:07:50.266Z,100884.12
2023-02-13T05:08:52.594Z,100890.06
2023-02-13T05:09:54.806Z,100885.75
2023-02-13T05:10:57.292Z,100887.48
2023-02-13T05:11:59.943Z,100891.10
2023-02-13T05:13:02.435Z,100894.53
2023-02-13T05:14:04.567Z,100883.52
2023-02-13T05:15:07.628Z,100891.27
2023-02-13T05:16:10.611Z,100887.80
2023-02-13T05:17:12.851Z,100880.19
2023-02-13T05:18:15.083Z,100891.17
2023-02-13T05:19:17.125Z,100897.14
2023-02-13T05:20:19.900Z,100894.63
2023-02-13T05:21:40.661Z,100896.52
2023-02-13T05:23:06.292Z,100896.58
2023-02-13T05:24:08.682Z,100894.87
2023-02-13T05:25:10.798Z,100894.50
2023-02-13T05:26:13.574Z,100903.12
2023-02-13T05:27:15.735Z,100892.23
2023-02-13T05:28:36.345Z,100898.16
2023-02-13T05:29:38.964Z,100899.19
2023-02-13T05:30:41.234Z,100888.27
2023-02-13T05:31:43.731Z,100898.63
2023-02-13T05:32:46.818Z,100892.80
2023-02-13T05:33:48.982Z,100890.30
2023-02-13T05:34:51.096Z,100881.84
2023-02-13T05:35:55.392Z,100882.72
2023-02-13T05:36:58.094Z,100893.70
2023-02-13T05:38:00.176Z,100884.45
2023-02-13T05:39:02.298Z,100883.72
2023-02-13T05:40:06.318Z,100888.94
2023-02-13T05:41:08.374Z,100883.86
2023-02-13T05:42:10.390Z,100889.20
2023-02-13T05:43:12.640Z,100885.88
2023-02-13T05:44:15.531Z,100885.74
2023-02-13T05:45:17.825Z,100882.31
2023-02-13T05:46:21.014Z,100898.49
2023-02-13T05:47:23.246Z,100890.93
2023-02-13T05:48:25.254Z,100891.80
2023-02-13T05:49:27.420Z,100885.09
2023-02-13T05:50:30.014Z,100889.34
2023-02-13T05:51:32.514Z,100881.78
2023-02-13T05:52:35.156Z,100879.37
2023-02-13T05:53:37.954Z,100889.48
2023-02-13T05:54:40.190Z,100892.86
2023-02-13T05:55:42.637Z,100891.30
2023-02-13T05:56:47.213Z,100888.92
2023-02-13T05:57:49.721Z,100877.14
2023-02-13T05:58:53.640Z,100881.42
2023-02-13T05:59:55.921Z,100885.10
2023-02-13T06:00:59.994Z,100874.23
2023-02-13T06:02:02.398Z,100874.25
2023-02-13T06:03:04.664Z,100881.11
2023-02-13T06:04:06.970Z,100876.06
2023-02-13T06:05:09.030Z,100883.05
2023-02-13T06:06:11.525Z,100873.06
2023-02-13T06:07:13.665Z,100867.10
2023-02-13T06:08:15.927Z,100873.89
2023-02-13T06:09:18.042Z,100873.94
2023-02-13T06:10:20.527Z,100868.88
2023-02-13T06:11:22.613Z,100867.16
2023-02-13T06:12:25.363Z,100861.25
2023-02-13T06:13:28.777Z,100863.09
2023-02-13T06:14:30.989Z,100860.54
2023-02-13T06:15:32.986Z,100864.11
2023-02-13T06:16:35.200Z,100866.03
2023-02-13T06:17:37.509Z,100861.83
2023-02-13T06:18:39.914Z,100863.59
2023-02-13T06:19:42.622Z,100865.45
2023-02-13T06:20:45.106Z,100864.65
2023-02-13T06:21:47.206Z,100863.72
2023-02-13T06:24:01.617Z,100850.48
2023-02-13T06:25:04.370Z,100848.52
2023-02-13T06:26:10.101Z,100840.69
2023-02-13T06:27:13.177Z,100847.67
2023-02-13T06:28:17.646Z,100840.91
2023-02-13T06:29:19.819Z,100845.12
2023-02-13T06:30:23.485Z,100843.25
2023-02-13T06:31:26.752Z,100842.22
2023-02-13T06:32:29.064Z,100838.97
2023-02-13T06:33:32.665Z,100840.81
2023-02-13T06:34:34.731Z,100841.88
2023-02-13T06:35:36.976Z,100838.61
2023-02-13T06:36:41.056Z,100841.17
2023-02-13T06:37:43.443Z,100845.33
2023-02-13T06:38:45.454Z,100830.86
2023-02-13T06:39:47.878Z,100828.39
2023-02-13T06:40:50.706Z,100832.60
2023-02-13T06:41:52.612Z,100832.60
2023-02-13T06:42:55.030Z,100835.34
2023-02-13T06:43:57.183Z,100838.80
2023-02-13T06:44:59.367Z,100825.20
2023-02-13T06:46:06.030Z,100837.07
2023-02-13T06:47:08.484Z,100836.34
2023-02-13T06:48:10.686Z,100840.11
2023-02-13T06:49:12.761Z,100841.86
2023-02-13T06:50:17.012Z,100824.66
2023-02-13T06:51:19.188Z,100825.53
2023-02-13T06:52:21.594Z,100826.23
2023-02-13T06:53:25.159Z,100815.41
2023-02-13T06:54:44.618Z,100814.61
2023-02-13T06:55:31.989Z,100826.51
2023-02-13T06:56:34.420Z,100819.97
2023-02-13T06:57:36.427Z,100811.70
2023-02-13T06:58:39.581Z,100808.28
2023-02-13T06:59:42.130Z,100820.23
2023-02-13T07:00:45.226Z,100813.98
2023-02-13T07:01:47.638Z,100806.48
2023-02-13T07:02:49.790Z,100805.73
2023-02-13T07:03:51.945Z,100813.67
2023-02-13T07:04:54.237Z,100806.84
2023-02-13T07:05:57.259Z,100806.91
2023-02-13T07:06:59.517Z,100804.86
2023-02-13T07:08:01.560Z,100803.31
2023-02-13T07:09:04.218Z,100803.45
2023-02-13T07:10:09.881Z,100802.61
2023-02-13T07:11:19.845Z,100789.02
2023-02-13T07:12:22.252Z,100791.56
2023-02-13T07:13:24.421Z,100792.40
2023-02-13T07:14:27.442Z,100791.67
2023-02-13T07:15:30.624Z,100780.34
2023-02-13T07:16:33.701Z,100790.57
2023-02-13T07:17:36.278Z,100782.91
2023-02-13T07:18:38.758Z,100787.84
2023-02-13T07:19:40.945Z,100782.88
2023-02-13T07:20:43.360Z,100775.25
2023-02-13T07:21:45.594Z,100777.06
2023-02-13T07:22:47.823Z,100778.09
2023-02-13T07:23:50.768Z,100780.89
2023-02-13T07:24:54.150Z,100801.05
2023-02-13T07:25:59.518Z,100774.59
2023-02-13T07:27:01.840Z,100770.64
2023-02-13T07:28:06.848Z,100793.59
2023-02-13T07:29:11.897Z,100778.80
2023-02-13T07:30:13.877Z,100792.56
2023-02-13T07:31:16.135Z,100777.76
2023-02-13T07:32:18.405Z,100770.95
2023-02-13T07:33:21.389Z,100777.18
2023-02-13T07:34:24.729Z,100771.31
2023-02-13T07:35:27.059Z,100763.91
2023-02-13T07:36:29.547Z,100768.39
2023-02-13T07:37:31.954Z,100768.45
2023-02-13T07:38:34.174Z,100775.39
2023-02-13T07:39:39.196Z,100779.44
2023-02-13T07:40:42.486Z,100761.37
2023-02-13T07:41:45.051Z,100767.38
2023-02-13T07:42:48.342Z,100765.72
2023-02-13T07:43:50.425Z,100773.33
2023-02-13T07:44:52.809Z,100763.27
2023-02-13T07:46:00.843Z,100765.98
2023-02-13T07:47:04.269Z,100768.63
2023-02-13T07:48:06.609Z,100773.82
2023-02-13T07:49:08.751Z,100765.39
2023-02-13T07:50:13.804Z,100770.34
2023-02-13T07:51:16.568Z,100760.09
2023-02-13T07:52:18.975Z,100773.66
2023-02-13T07:53:22.209Z,100773.66
2023-02-13T07:54:24.769Z,100765.37
2023-02-13T07:55:28.752Z,100768.87
2023-02-13T07:56:32.036Z,100762.95
2023-02-13T07:57:34.386Z,100759.45
2023-02-13T07:58:39.812Z,100757.85
2023-02-13T07:59:43.106Z,100760.41
2023-02-13T08:00:46.843Z,100756.89
2023-02-13T08:01:50.929Z,100763.44
2023-02-13T08:02:53.291Z,100765.31
2023-02-13T08:03:55.426Z,100753.41
2023-02-13T08:04:58.006Z,100753.52
2023-02-13T08:06:00.548Z,100751.97
2023-02-13T08:07:02.870Z,100746.88
2023-02-13T08:08:05.590Z,100745.20
2023-02-13T08:09:28.576Z,100738.13
2023-02-13T08:10:49.610Z,100745.94
2023-02-13T08:11:53.711Z,100743.47
2023-02-13T08:12:56.112Z,100739.11
2023-02-13T08:13:59.168Z,100740.06
2023-02-13T08:15:01.441Z,100733.23
2023-02-13T08:16:05.122Z,100740.13
2023-02-13T08:17:09.362Z,100736.76
2023-02-13T08:18:11.417Z,100739.25
2023-02-13T08:19:14.130Z,100736.88
2023-02-13T08:20:17.546Z,100731.78
2023-02-13T08:21:20.275Z,100743.45
2023-02-13T08:22:24.295Z,100733.48
2023-02-13T08:23:26.535Z,100736.54
2023-02-13T08:24:29.653Z,100737.47
2023-02-13T08:25:32.608Z,100726.67
2023-02-13T08:26:35.393Z,100734.23
2023-02-13T08:27:38.106Z,100725.06
2023-02-13T08:28:40.453Z,100731.87
2023-02-13T08:29:42.958Z,100725.95
2023-02-13T08:30:45.247Z,100731.29
2023-02-13T08:31:48.305Z,100718.93
2023-02-13T08:32:54.177Z,100729.31
2023-02-13T08:33:56.949Z,100717.61
2023-02-13T08:34:59.589Z,100727.59
2023-02-13T08:36:06.108Z,100722.50
2023-02-13T08:37:08.479Z,100717.55
2023-02-13T08:38:11.369Z,100720.82
2023-02-13T08:39:13.436Z,100720.82
2023-02-13T08:40:15.768Z,100726.70
2023-02-13T08:41:20.464Z,100719.46
2023-02-13T08:42:23.229Z,100725.39
2023-02-13T08:43:25.673Z,100719.23
2023-02-13T08:44:28.013Z,100724.59
2023-02-13T08:45:31.400Z,100728.04
2023-02-13T08:46:34.026Z,100715.28
2023-02-13T08:47:39.288Z,100728.06
2023-02-13T08:48:41.487Z,100726.16
2023-02-13T08:49:43.727Z,100727.75
2023-02-13T08:50:45.941Z,100732.00
2023-02-13T08:51:48.303Z,100719.33
2023-02-13T08:52:51.477Z,100721.98
2023-02-13T08:53:54.846Z,100720.17
2023-02-13T08:54:57.210Z,100725.14
2023-02-13T08:55:59.896Z,100717.41
2023-02-13T08:57:02.391Z,100718.33
2023-02-13T08:58:05.181Z,100716.73
2023-02-13T08:59:07.343Z,100728.02
2023-02-13T09:00:10.987Z,100734.88
2023-02-13T09:01:13.272Z,100722.88
2023-02-13T09:02:15.522Z,100716.98
2023-02-13T09:03:17.874Z,100727.30
2023-02-13T09:04:21.765Z,100723.70
2023-02-13T09:05:24.728Z,100709.06
2023-02-13T09:06:28.034Z,100719.47
2023-02-13T09:07:30.987Z,100729.56
2023-02-13T09:08:35.497Z,100724.70
2023-02-13T09:09:38.028Z,100717.20
2023-02-13T09:10:43.232Z,100730.86
2023-02-13T09:11:45.204Z,100730.86
2023-02-13T09:12:54.884Z,100715.56
2023-02-13T09:13:57.149Z,100721.09
2023-02-13T09:14:59.199Z,100731.26
2023-02-13T09:16:05.205Z,100704.62
2023-02-13T09:17:07.868Z,100719.94
2023-02-13T09:18:11.658Z,100723.34
2023-02-13T09:19:13.916Z,100718.17
2023-02-13T09:20:17.082Z,100707.11
2023-02-13T09:21:25.052Z,100709.14
2023-02-13T09:22:28.998Z,100728.59
2023-02-13T09:23:34.864Z,100708.13
2023-02-13T09:24:38.510Z,100687.23
2023-02-13T09:25:41.269Z,100691.19
2023-02-13T09:26:43.632Z,100686.34
2023-02-13T09:27:45.845Z,100709.67
2023-02-13T09:28:48.169Z,100700.80
2023-02-13T09:29:50.237Z,100682.85
2023-02-13T09:30:52.811Z,100680.69
2023-02-13T09:31:55.223Z,100687.15
2023-02-13T09:32:58.756Z,100665.80
2023-02-13T09:34:01.057Z,100708.28
2023-02-13T09:35:05.983Z,100678.11
2023-02-13T09:36:14.426Z,100674.66
2023-02-13T09:37:17.307Z,100693.34
2023-02-13T09:38:19.907Z,100673.59
2023-02-13T09:39:22.337Z,100671.73
2023-02-13T09:40:31.050Z,100680.17
2023-02-13T09:41:40.084Z,100663.03
2023-02-13T09:42:44.231Z,100680.03
2023-02-13T09:44:11.588Z,100668.05
2023-02-13T09:45:16.737Z,100661.38
2023-02-13T09:46:38.897Z,100689.77
2023-02-13T09:47:43.654Z,100672.43
2023-02-13T09:48:49.463Z,100657.16
2023-02-13T09:50:00.654Z,100662.46
2023-02-13T09:51:05.656Z,100663.39
2023-02-13T09:52:10.045Z,100656.67
2023-02-13T09:53:15.988Z,100649.77
2023-02-13T09:54:19.267Z,100668.52
2023-02-13T09:55:38.154Z,100646.38
2023-02-13T09:57:01.152Z,100660.84
2023-02-13T09:58:27.633Z,100653.16
2023-02-13T09:59:51.344Z,100654.84
2023-02-13T10:00:57.740Z,100660.77
2023-02-13T10:02:20.750Z,100641.20
2023-02-13T10:03:36.328Z,100669.99
2023-02-13T10:05:01.041Z,100675.11
2023-02-13T10:06:17.126Z,100659.70
2023-02-13T10:09:02.017Z,100638.12
2023-02-13T10:10:14.359Z,100635.60
2023-02-13T10:11:29.295Z,100648.88
2023-02-13T10:13:12.024Z,100649.59
2023-02-13T10:14:20.942Z,100667.58
2023-02-13T10:15:29.299Z,100659.00
2023-02-13T10:16:51.128Z,100649.52
2023-02-13T10:17:56.957Z,100657.34
2023-02-13T10:19:35.410Z,100682.99
2023-02-13T10:20:48.272Z,100663.34
2023-02-13T10:21:54.224Z,100651.13
2023-02-13T10:23:00.182Z,100649.27
2023-02-13T10:24:12.722Z,100653.80
2023-02-13T10:25:27.108Z,100647.08
2023-02-13T10:26:42.300Z,100637.80
2023-02-13T10:27:48.883Z,100637.80
2023-02-13T10:29:15.717Z,100632.56
2023-02-13T10:30:27.903Z,100630.97
2023-02-13T10:31:30.407Z,100619.16
2023-02-13T10:32:55.065Z,100637.08
2023-02-13T10:34:01.134Z,100647.33
2023-02-13T10:35:06.257Z,100628.47
2023-02-13T10:36:34.294Z,100628.19
2023-02-13T10:37:39.526Z,100624.53
2023-02-13T10:39:00.574Z,100617.77
2023-02-13T10:40:06.969Z,100626.25
2023-02-13T10:41:22.505Z,100614.23
2023-02-13T10:42:43.786Z,100604.11
2023-02-13T10:44:10.380Z,100611.72
2023-02-13T10:45:22.210Z,100602.21
2023-02-13T10:46:41.473Z,100615.07
2023-02-13T10:48:00.383Z,100618.52
2023-02-13T10:49:11.957Z,100602.34
2023-02-13T10:50:33.470Z,100625.41
2023-02-13T10:51:40.460Z,100617.53
2023-02-13T10:52:46.288Z,100607.23
2023-02-13T10:53:57.851Z,100606.44
2023-02-13T10:55:12.205Z,100614.23
2023-02-13T10:56:18.230Z,100623.59
2023-02-13T10:57:27.184Z,100627.05
2023-02-13T10:58:50.517Z,100644.04
2023-02-13T11:00:11.581Z,100601.46
2023-02-13T11:01:40.433Z,100612.55
2023-02-13T11:02:42.772Z,100610.87
2023-02-13T11:03:47.225Z,100611.56
2023-02-13T11:04:52.612Z,100610.72
2023-02-13T11:05:57.893Z,100612.51
2023-02-13T11:07:03.008Z,100610.91
2023-02-13T11:08:26.695Z,100598.11
2023-02-13T11:09:32.670Z,100593.87
2023-02-13T11:10:35.858Z,100617.77
2023-02-13T11:11:40.796Z,100601.62
2023-02-13T11:12:44.405Z,100596.55
2023-02-13T11:13:46.566Z,100606.84
2023-02-13T11:15:01.251Z,100605.08
2023-02-13T11:16:07.511Z,100605.08
2023-02-13T11:17:16.587Z,100614.60
2023-02-13T11:18:21.900Z,100618.81
2023-02-13T11:19:30.632Z,100604.23
2023-02-13T11:20:38.885Z,100602.59
2023-02-13T11:21:42.410Z,100585.55
2023-02-13T11:22:45.417Z,100600.09
2023-02-13T11:23:55.057Z,100603.50
2023-02-13T11:25:01.057Z,100601.84
2023-02-13T11:26:08.321Z,100615.52
2023-02-13T11:27:13.519Z,100624.73
2023-02-13T11:28:20.354Z,100599.87
2023-02-13T11:29:26.275Z,100594.02
2023-02-13T11:30:34.082Z,100592.38
2023-02-13T11:31:37.777Z,100593.21
2023-02-13T11:32:40.197Z,100593.21
2023-02-13T11:33:42.470Z,100593.21
2023-02-13T11:34:46.751Z,100601.78
2023-02-13T11:35:50.212Z,100602.63
2023-02-13T11:36:54.883Z,100592.38
2023-02-13T11:38:18.829Z,100594.83
2023-02-13T11:39:22.712Z,100593.91
2023-02-13T11:40:32.209Z,100593.98
2023-02-13T11:41:40.835Z,100587.09
2023-02-13T11:42:46.433Z,100587.86
2023-02-13T11:43:53.191Z,100595.54
2023-02-13T11:44:59.164Z,100581.05
2023-02-13T11:46:08.148Z,100582.01
2023-02-13T11:47:10.868Z,100586.36
2023-02-13T11:48:23.655Z,100583.77
2023-02-13T11:49:32.848Z,100570.03
2023-02-13T11:50:37.271Z,100575.23
2023-02-13T11:51:46.049Z,100582.92
2023-02-13T11:53:04.963Z,100580.36
2023-02-13T11:54:24.251Z,100573.48
2023-02-13T11:55:38.083Z,100555.56
2023-02-13T11:57:09.080Z,100566.73
2023-02-13T11:58:04.696Z,100549.59
2023-02-13T11:59:10.575Z,100563.33
2023-02-13T12:00:30.573Z,100542.84
2023-02-13T12:01:33.870Z,100553.04
2023-02-13T12:02:49.295Z,100563.29
2023-02-13T12:04:18.355Z,100549.66
2023-02-13T12:05:25.309Z,100549.66
2023-02-13T12:06:29.010Z,100543.69
2023-02-13T12:07:33.751Z,100542.05
2023-02-13T12:08:38.475Z,100535.23
2023-02-13T12:09:42.208Z,100539.50
2023-02-13T12:10:45.197Z,100539.58
2023-02-13T12:11:51.753Z,100535.29
2023-02-13T12:13:00.892Z,100545.57
2023-02-13T12:14:03.198Z,100541.33
2023-02-13T12:15:09.204Z,100548.14
2023-02-13T12:16:30.710Z,100537.80
2023-02-13T12:17:36.163Z,100525.84
2023-02-13T12:18:41.939Z,100534.36
2023-02-13T12:19:51.581Z,100537.77
2023-02-13T12:21:06.928Z,100530.94
2023-02-13T12:22:27.204Z,100527.58
2023-02-13T12:23:48.329Z,100531.05
2023-02-13T12:25:17.225Z,100530.17
2023-02-13T12:26:23.961Z,100528.49
2023-02-13T12:27:52.385Z,100522.52
2023-02-13T12:29:27.124Z,100540.48
2023-02-13T12:31:03.258Z,100527.59
2023-02-13T12:32:30.160Z,100532.72
2023-02-13T12:33:45.576Z,100525.03
2023-02-13T12:34:57.305Z,100524.17
2023-02-13T12:36:22.416Z,100524.14
2023-02-13T12:37:34.137Z,100527.55
2023-02-13T12:38:55.271Z,100514.73
2023-02-13T12:40:01.052Z,100511.31
2023-02-13T12:41:25.415Z,100513.91
2023-02-13T12:42:50.039Z,100514.77
2023-02-13T12:44:01.758Z,100519.04
2023-02-13T12:45:23.104Z,100509.68
2023-02-13T12:46:48.334Z,100522.52
2023-02-13T12:49:28.179Z,100506.17
2023-02-13T12:50:34.236Z,100505.37
2023-02-13T12:51:40.121Z,100504.53
2023-02-13T12:52:47.102Z,100508.87
2023-02-13T12:54:28.537Z,100492.91
2023-02-13T12:55:46.712Z,100508.16
2023-02-13T12:57:04.946Z,100506.33
2023-02-13T12:58:27.833Z,100505.44